createdAt,value
2018-12-21T00:00:19.166Z,3.67
2018-12-21T00:02:47.266Z,3.10
2018-12-21T00:05:15.412Z,3.63
2018-12-21T00:07:43.484Z,4.07
2018-12-21T00:10:12.202Z,3.33
2018-12-21T00:12:40.264Z,3.47
2018-12-21T00:15:08.444Z,2.60
2018-12-21T00:17:36.527Z,3.17
2018-12-21T00:20:06.043Z,3.57
2018-12-21T00:22:34.518Z,3.55
2018-12-21T00:25:02.625Z,3.33
2018-12-21T00:27:30.715Z,3.50
2018-12-21T00:29:58.859Z,3.07
2018-12-21T00:32:32.426Z,2.77
2018-12-21T00:35:05.906Z,2.50
2018-12-21T00:37:39.391Z,3.33
2018-12-21T00:40:13.296Z,2.30
2018-12-21T00:42:47.095Z,3.63
2018-12-21T00:45:17.146Z,2.62
2018-12-21T00:47:45.232Z,2.70
2018-12-21T00:50:13.348Z,2.57
2018-12-21T00:52:41.417Z,2.60
2018-12-21T00:55:09.738Z,3.00
2018-12-21T00:57:37.794Z,2.70
2018-12-21T01:00:12.407Z,3.57
2018-12-21T01:02:40.511Z,2.70
2018-12-21T01:05:08.690Z,3.23
2018-12-21T01:07:36.746Z,3.13
2018-12-21T01:10:05.420Z,3.20
2018-12-21T01:12:34.763Z,2.90
2018-12-21T01:15:02.930Z,2.37
2018-12-21T01:17:31.018Z,2.20
2018-12-21T01:19:59.152Z,2.23
2018-12-21T01:22:27.252Z,2.67
2018-12-21T01:24:55.323Z,2.30
2018-12-21T01:27:23.387Z,3.00
2018-12-21T01:29:51.493Z,2.67
2018-12-21T01:32:19.614Z,2.94
2018-12-21T01:34:47.682Z,1.67
2018-12-21T01:37:15.766Z,2.17
2018-12-21T01:39:43.903Z,2.20
2018-12-21T01:42:11.957Z,2.13
2018-12-21T01:44:40.052Z,2.40
2018-12-21T01:47:08.106Z,2.03
2018-12-21T01:49:36.170Z,2.07
2018-12-21T01:52:04.267Z,1.90
2018-12-21T01:54:32.338Z,1.95
2018-12-21T01:57:00.473Z,1.77
2018-12-21T01:59:28.538Z,2.10
2018-12-21T02:01:56.826Z,1.80
2018-12-21T02:04:24.936Z,1.40
2018-12-21T02:06:53.062Z,1.37
2018-12-21T02:09:21.178Z,2.27
2018-12-21T02:11:49.320Z,1.60
2018-12-21T02:14:17.380Z,1.63
2018-12-21T02:16:45.478Z,1.43
2018-12-21T02:19:13.550Z,1.30
2018-12-21T02:21:41.691Z,1.33
2018-12-21T02:24:09.746Z,1.30
2018-12-21T02:26:37.838Z,1.33
2018-12-21T02:29:05.938Z,1.40
2018-12-21T02:31:34.074Z,1.43
2018-12-21T02:34:02.274Z,1.50
2018-12-21T02:36:30.330Z,1.27
2018-12-21T02:38:58.386Z,1.33
2018-12-21T02:41:26.454Z,1.57
2018-12-21T02:43:54.518Z,1.47
2018-12-21T02:46:22.705Z,1.63
2018-12-21T02:48:50.846Z,1.27
2018-12-21T02:51:18.911Z,1.27
2018-12-21T02:53:46.966Z,1.00
2018-12-21T02:56:15.062Z,1.60
2018-12-21T02:58:43.154Z,1.20
2018-12-21T03:01:12.184Z,1.23
2018-12-21T03:03:40.339Z,1.13
2018-12-21T03:06:08.398Z,1.10
2018-12-21T03:08:36.455Z,0.80
2018-12-21T03:11:04.528Z,1.13
2018-12-21T03:13:33.079Z,0.88
2018-12-21T03:16:01.291Z,0.50
2018-12-21T03:18:29.427Z,0.60
2018-12-21T03:20:57.503Z,0.93
2018-12-21T03:23:25.654Z,0.60
2018-12-21T03:25:53.851Z,0.80
2018-12-21T03:28:21.907Z,0.63
2018-12-21T03:30:49.976Z,0.90
2018-12-21T03:33:18.165Z,0.60
2018-12-21T03:35:46.343Z,0.72
2018-12-21T03:38:14.487Z,0.60
2018-12-21T03:40:42.557Z,0.67
2018-12-21T03:43:10.703Z,0.63
2018-12-21T03:45:38.927Z,0.60
2018-12-21T03:48:07.084Z,0.80
2018-12-21T03:50:35.197Z,0.53
2018-12-21T03:53:03.254Z,0.60
2018-12-21T03:55:31.326Z,0.47
2018-12-21T03:57:59.387Z,0.43
2018-12-21T04:00:27.486Z,0.40
2018-12-21T04:02:55.630Z,0.60
2018-12-21T04:05:23.826Z,0.40
2018-12-21T04:07:51.969Z,0.60
2018-12-21T04:10:20.062Z,0.43
2018-12-21T04:12:48.125Z,0.50
2018-12-21T04:15:16.246Z,0.67
2018-12-21T04:17:44.379Z,0.40
2018-12-21T04:20:12.647Z,0.43
2018-12-21T04:22:40.785Z,0.50
2018-12-21T04:25:08.987Z,0.40
2018-12-21T04:27:37.056Z,0.50
2018-12-21T04:30:08.361Z,0.43
2018-12-21T04:32:36.410Z,0.50
2018-12-21T04:35:04.890Z,0.40
2018-12-21T04:37:32.943Z,0.70
2018-12-21T04:40:01.104Z,0.37
2018-12-21T04:42:29.172Z,0.40
2018-12-21T04:44:57.349Z,0.50
2018-12-21T04:47:25.499Z,0.50
2018-12-21T04:49:53.642Z,0.40
2018-12-21T04:52:21.707Z,0.33
2018-12-21T04:54:49.775Z,0.50
2018-12-21T04:57:17.847Z,0.73
2018-12-21T04:59:45.926Z,0.50
2018-12-21T05:02:13.997Z,0.40
2018-12-21T05:04:42.069Z,0.50
2018-12-21T05:07:12.560Z,0.50
2018-12-21T05:09:40.534Z,0.50
2018-12-21T05:12:08.960Z,0.50
2018-12-21T05:14:37.212Z,0.40
2018-12-21T05:17:05.326Z,0.30
2018-12-21T05:19:33.383Z,0.40
2018-12-21T05:22:01.444Z,0.40
2018-12-21T05:24:29.529Z,0.33
2018-12-21T05:26:57.623Z,0.40
2018-12-21T05:29:25.687Z,0.30
2018-12-21T05:31:53.772Z,0.20
2018-12-21T05:34:21.810Z,0.60
2018-12-21T05:36:49.878Z,0.50
2018-12-21T05:39:17.939Z,0.40
2018-12-21T05:41:46.003Z,0.73
2018-12-21T05:44:14.057Z,0.50
2018-12-21T05:46:42.204Z,0.50
2018-12-21T05:49:10.259Z,0.40
2018-12-21T05:51:38.373Z,0.50
2018-12-21T05:54:06.437Z,0.37
2018-12-21T05:56:34.570Z,0.50
2018-12-21T05:59:02.683Z,0.95
2018-12-21T06:01:30.744Z,0.50
2018-12-21T06:03:58.813Z,0.60
2018-12-21T06:06:26.952Z,0.50
2018-12-21T06:08:55.080Z,0.60
2018-12-21T06:11:23.175Z,0.40
2018-12-21T06:13:51.272Z,0.40
2018-12-21T06:16:19.381Z,0.40
2018-12-21T06:18:48.005Z,0.40
2018-12-21T06:21:16.109Z,0.30
2018-12-21T06:23:44.182Z,0.40
2018-12-21T06:26:12.235Z,0.37
2018-12-21T06:28:40.340Z,0.40
2018-12-21T06:31:08.526Z,0.67
2018-12-21T06:33:36.620Z,0.53
2018-12-21T06:36:04.723Z,0.27
2018-12-21T06:38:32.875Z,0.40
2018-12-21T06:41:00.967Z,0.40
2018-12-21T06:43:29.065Z,0.50
2018-12-21T06:45:58.298Z,0.40
2018-12-21T06:48:26.403Z,0.30
2018-12-21T06:50:54.463Z,0.60
2018-12-21T06:53:22.613Z,0.60
2018-12-21T06:55:50.763Z,0.50
2018-12-21T06:58:18.810Z,0.40
2018-12-21T07:00:46.903Z,0.40
2018-12-21T07:03:17.254Z,0.35
2018-12-21T07:05:45.063Z,0.30
2018-12-21T07:08:13.135Z,0.43
2018-12-21T07:10:41.206Z,0.30
2018-12-21T07:13:09.276Z,0.40
2018-12-21T07:15:37.330Z,0.50
2018-12-21T07:18:05.407Z,0.40
2018-12-21T07:20:33.507Z,0.40
2018-12-21T07:23:01.594Z,0.30
2018-12-21T07:25:29.659Z,0.63
2018-12-21T07:27:57.767Z,0.40
2018-12-21T07:30:25.838Z,0.30
2018-12-21T07:32:54.314Z,0.40
2018-12-21T07:35:22.523Z,0.30
2018-12-21T07:37:50.704Z,0.40
2018-12-21T07:40:18.846Z,0.50
2018-12-21T07:42:46.898Z,0.60
2018-12-21T07:45:14.982Z,0.40
2018-12-21T07:47:43.055Z,0.60
2018-12-21T07:50:11.164Z,0.50
2018-12-21T07:52:39.784Z,0.37
2018-12-21T07:55:08.063Z,0.50
2018-12-21T07:57:36.124Z,0.60
2018-12-21T08:00:07.816Z,0.50
2018-12-21T08:02:35.942Z,0.53
2018-12-21T08:05:05.307Z,0.30
2018-12-21T08:07:33.364Z,0.37
2018-12-21T08:10:01.495Z,0.40
2018-12-21T08:12:29.639Z,0.33
2018-12-21T08:14:57.698Z,0.30
2018-12-21T08:17:25.783Z,0.40
2018-12-21T08:19:53.858Z,0.60
2018-12-21T08:22:22.035Z,0.60
2018-12-21T08:24:50.098Z,0.43
2018-12-21T08:27:18.196Z,0.40
2018-12-21T08:29:46.239Z,0.50
2018-12-21T08:32:14.398Z,0.30
2018-12-21T08:34:42.458Z,0.30
2018-12-21T08:37:10.530Z,0.30
2018-12-21T08:39:39.474Z,0.35
2018-12-21T08:42:07.578Z,0.50
2018-12-21T08:44:35.645Z,0.30
2018-12-21T08:47:03.766Z,0.40
2018-12-21T08:49:32.426Z,0.30
2018-12-21T08:52:00.589Z,0.40
2018-12-21T08:54:28.728Z,0.47
2018-12-21T08:56:56.832Z,0.40
2018-12-21T08:59:24.966Z,0.30
2018-12-21T09:01:53.039Z,0.37
2018-12-21T09:04:21.138Z,0.30
2018-12-21T09:06:49.246Z,0.37
2018-12-21T09:09:17.301Z,1.00
2018-12-21T09:11:45.499Z,1.27
2018-12-21T09:14:13.574Z,1.50
2018-12-21T09:16:42.239Z,1.27
2018-12-21T09:19:10.306Z,1.83
2018-12-21T09:21:38.378Z,1.60
2018-12-21T09:24:06.429Z,1.73
2018-12-21T09:26:34.491Z,1.43
2018-12-21T09:29:02.627Z,1.87
2018-12-21T09:31:30.698Z,0.90
2018-12-21T09:33:59.781Z,1.57
2018-12-21T09:36:27.999Z,1.50
2018-12-21T09:38:56.066Z,1.70
2018-12-21T09:41:24.170Z,1.77
2018-12-21T09:43:52.311Z,1.13
2018-12-21T09:46:20.382Z,1.10
2018-12-21T09:48:48.479Z,0.53
2018-12-21T09:51:16.542Z,0.70
2018-12-21T09:53:44.916Z,0.40
2018-12-21T09:56:12.992Z,0.40
2018-12-21T09:58:41.061Z,0.30
2018-12-21T10:01:09.131Z,0.30
2018-12-21T10:03:37.261Z,0.37
2018-12-21T10:06:05.331Z,0.40
2018-12-21T10:08:33.499Z,0.37
2018-12-21T10:11:01.582Z,0.20
2018-12-21T10:13:29.744Z,0.30
2018-12-21T10:15:58.288Z,0.30
2018-12-21T10:18:26.342Z,0.30
2018-12-21T10:20:54.503Z,0.23
2018-12-21T10:23:22.570Z,0.40
2018-12-21T10:25:50.623Z,0.30
2018-12-21T10:28:18.734Z,0.33
2018-12-21T10:30:46.970Z,0.40
2018-12-21T10:33:15.033Z,0.33
2018-12-21T10:35:43.092Z,0.20
2018-12-21T10:38:11.155Z,0.83
2018-12-21T10:40:39.219Z,0.30
2018-12-21T10:43:07.322Z,0.40
2018-12-21T10:45:41.606Z,0.40
2018-12-21T10:48:05.449Z,0.47
2018-12-21T10:50:33.534Z,0.40
2018-12-21T10:53:01.600Z,0.40
2018-12-21T10:55:30.196Z,0.40
2018-12-21T10:57:58.276Z,0.30
2018-12-21T11:00:26.463Z,0.30
2018-12-21T11:02:54.672Z,0.30
2018-12-21T11:05:23.658Z,0.40
2018-12-21T11:07:51.812Z,0.27
2018-12-21T11:10:19.901Z,0.40
2018-12-21T11:12:48.726Z,0.40
2018-12-21T11:15:16.814Z,0.50
2018-12-21T11:17:44.891Z,0.43
2018-12-21T11:20:13.085Z,0.30
2018-12-21T11:22:41.230Z,0.50
2018-12-21T11:25:11.109Z,0.35
2018-12-21T11:27:39.181Z,0.40
2018-12-21T11:30:09.069Z,0.45
2018-12-21T11:32:37.144Z,0.50
2018-12-21T11:35:06.296Z,0.57
2018-12-21T11:37:34.371Z,0.30
2018-12-21T11:40:04.392Z,0.30
2018-12-21T11:42:32.457Z,0.50
2018-12-21T11:45:00.514Z,0.30
2018-12-21T11:47:28.808Z,0.40
2018-12-21T11:49:57.045Z,0.33
2018-12-21T11:52:29.305Z,0.25
2018-12-21T11:54:59.137Z,0.40
2018-12-21T11:57:27.699Z,0.40
2018-12-21T11:59:56.704Z,0.57
2018-12-21T12:02:25.441Z,0.40
2018-12-21T12:04:53.773Z,0.47
2018-12-21T12:07:21.958Z,0.33
2018-12-21T12:09:51.512Z,0.40
2018-12-21T12:12:22.633Z,0.40
2018-12-21T12:14:50.771Z,0.40
2018-12-21T12:17:22.498Z,0.30
2018-12-21T12:19:58.787Z,0.50
2018-12-21T12:22:26.942Z,0.50
2018-12-21T12:24:55.544Z,0.33
2018-12-21T12:27:23.795Z,0.40
2018-12-21T12:29:52.553Z,0.50
2018-12-21T12:32:21.854Z,0.33
2018-12-21T12:34:49.999Z,0.43
2018-12-21T12:37:18.518Z,0.40
2018-12-21T12:39:59.272Z,0.50
2018-12-21T12:42:27.448Z,0.40
2018-12-21T12:44:56.433Z,0.40
2018-12-21T12:47:24.832Z,0.40
2018-12-21T12:49:53.078Z,0.70
2018-12-21T12:52:21.598Z,0.63
2018-12-21T12:54:49.940Z,0.40
2018-12-21T12:57:18.064Z,0.53
2018-12-21T12:59:46.404Z,0.47
2018-12-21T13:02:14.592Z,0.50
2018-12-21T13:04:42.969Z,0.40
2018-12-21T13:07:11.120Z,0.55
2018-12-21T13:09:39.276Z,0.53
2018-12-21T13:12:07.421Z,0.50
2018-12-21T13:14:35.915Z,0.50
2018-12-21T13:17:04.070Z,0.50
2018-12-21T13:19:32.288Z,0.87
2018-12-21T13:22:02.467Z,0.80
2018-12-21T13:24:30.978Z,0.93
2018-12-21T13:26:59.095Z,0.60
2018-12-21T13:29:27.273Z,0.70
2018-12-21T13:31:56.428Z,0.57
2018-12-21T13:34:25.009Z,0.53
2018-12-21T13:36:53.297Z,0.50
2018-12-21T13:39:27.123Z,0.60
2018-12-21T13:41:55.213Z,0.60
2018-12-21T13:44:25.319Z,0.60
2018-12-21T13:46:55.474Z,0.47
2018-12-21T13:49:23.945Z,0.70
2018-12-21T13:51:56.375Z,0.63
2018-12-21T13:54:25.746Z,0.75
2018-12-21T13:56:56.755Z,0.50
2018-12-21T13:59:26.194Z,0.60
2018-12-21T14:01:55.669Z,0.67
2018-12-21T14:04:32.001Z,0.70
2018-12-21T14:07:00.175Z,0.60
2018-12-21T14:09:28.460Z,0.88
2018-12-21T14:11:58.203Z,0.57
2018-12-21T14:14:27.140Z,0.77
2018-12-21T14:16:55.416Z,0.80
2018-12-21T14:19:23.835Z,0.90
2018-12-21T14:21:52.151Z,1.20
2018-12-21T14:24:20.325Z,0.50
2018-12-21T14:26:48.502Z,0.82
2018-12-21T14:29:16.765Z,0.70
2018-12-21T14:32:10.861Z,0.80
2018-12-21T14:34:48.869Z,0.60
2018-12-21T14:37:17.077Z,0.60
2018-12-21T14:39:45.404Z,0.47
2018-12-21T14:42:13.574Z,0.80
2018-12-21T14:44:42.730Z,0.60
2018-12-21T14:47:10.993Z,0.80
2018-12-21T14:49:40.119Z,0.75
2018-12-21T14:52:08.538Z,0.70
2018-12-21T14:54:37.296Z,0.87
2018-12-21T14:57:07.807Z,1.13
2018-12-21T14:59:36.169Z,1.20
2018-12-21T15:02:05.479Z,1.70
2018-12-21T15:04:33.772Z,2.00
2018-12-21T15:07:01.912Z,2.30
2018-12-21T15:09:32.070Z,2.58
2018-12-21T15:12:00.350Z,2.30
2018-12-21T15:14:29.427Z,1.95
2018-12-21T15:16:58.583Z,1.87
2018-12-21T15:19:27.374Z,2.13
2018-12-21T15:21:57.361Z,2.60
2018-12-21T15:24:25.731Z,2.10
2018-12-21T15:26:53.989Z,2.08
2018-12-21T15:29:28.728Z,2.33
2018-12-21T15:31:57.331Z,2.43
2018-12-21T15:34:26.551Z,2.40
2018-12-21T15:36:56.312Z,3.47
2018-12-21T15:45:40.488Z,3.23
2018-12-21T15:51:37.006Z,2.60
2018-12-21T15:54:05.063Z,3.07
2018-12-21T15:56:34.168Z,3.10
2018-12-21T15:59:02.317Z,3.47
2018-12-21T16:01:36.824Z,3.47
2018-12-21T16:04:00.501Z,4.10
2018-12-21T16:06:28.603Z,3.27
2018-12-21T16:08:56.663Z,4.27
2018-12-21T16:11:24.808Z,3.53
2018-12-21T16:13:52.883Z,3.03
2018-12-21T16:16:21.007Z,3.30
2018-12-21T16:18:49.816Z,2.65
2018-12-21T16:21:17.981Z,2.83
2018-12-21T16:23:46.059Z,2.83
2018-12-21T16:26:14.251Z,3.00
2018-12-21T16:28:42.317Z,3.12
2018-12-21T16:31:10.494Z,2.90
2018-12-21T16:33:38.565Z,2.90
2018-12-21T16:36:06.639Z,4.55
2018-12-21T16:38:34.809Z,3.43
2018-12-21T16:41:02.923Z,3.97
2018-12-21T16:43:31.005Z,4.43
2018-12-21T16:45:59.075Z,4.40
2018-12-21T16:48:27.148Z,4.53
2018-12-21T16:50:55.253Z,3.20
2018-12-21T16:53:23.374Z,3.40
2018-12-21T16:55:51.418Z,4.83
2018-12-21T16:58:19.490Z,3.35
2018-12-21T17:00:47.559Z,4.07
2018-12-21T17:03:15.968Z,4.03
2018-12-21T17:05:44.103Z,4.20
2018-12-21T17:08:12.306Z,3.63
2018-12-21T17:10:42.407Z,4.30
2018-12-21T17:13:11.639Z,3.90
2018-12-21T17:15:39.739Z,3.98
2018-12-21T17:18:07.884Z,5.83
2018-12-21T17:20:35.953Z,4.33
2018-12-21T17:23:04.193Z,3.90
2018-12-21T17:25:32.556Z,4.37
2018-12-21T17:28:00.687Z,3.47
2018-12-21T17:30:28.770Z,4.43
2018-12-21T17:32:56.916Z,3.97
2018-12-21T17:35:24.990Z,3.87
2018-12-21T17:37:53.058Z,4.35
2018-12-21T17:40:21.123Z,4.07
2018-12-21T17:42:49.230Z,3.60
2018-12-21T17:45:17.998Z,4.30
2018-12-21T17:47:46.311Z,4.30
2018-12-21T17:50:14.395Z,4.23
2018-12-21T17:52:42.498Z,5.13
2018-12-21T17:55:10.604Z,4.30
2018-12-21T17:57:38.871Z,5.63
2018-12-21T18:00:14.757Z,5.10
2018-12-21T18:02:44.651Z,5.08
2018-12-21T18:05:13.158Z,4.47
2018-12-21T18:07:42.176Z,4.10
2018-12-21T18:10:12.016Z,4.37
2018-12-21T18:12:40.163Z,4.15
2018-12-21T18:15:09.459Z,4.83
2018-12-21T18:17:37.677Z,4.63
2018-12-21T18:20:10.529Z,4.40
2018-12-21T18:22:38.822Z,5.53
2018-12-21T18:25:12.394Z,4.33
2018-12-21T18:27:40.986Z,4.78
2018-12-21T18:30:17.962Z,5.13
2018-12-21T18:32:46.102Z,4.37
2018-12-21T18:35:14.295Z,4.00
2018-12-21T18:37:46.981Z,5.28
2018-12-21T18:40:15.134Z,4.40
2018-12-21T18:42:43.280Z,5.23
2018-12-21T18:45:11.674Z,3.83
2018-12-21T18:47:40.721Z,4.03
2018-12-21T18:50:11.469Z,4.45
2018-12-21T18:52:40.737Z,4.60
2018-12-21T18:55:14.238Z,4.60
2018-12-21T18:57:42.511Z,4.00
2018-12-21T19:00:13.909Z,4.37
2018-12-21T19:02:45.825Z,4.50
2018-12-21T19:05:14.509Z,5.27
2018-12-21T19:07:43.818Z,4.72
2018-12-21T19:10:11.949Z,4.65
2018-12-21T19:12:40.094Z,4.80
2018-12-21T19:15:10.158Z,5.47
2018-12-21T19:17:38.482Z,4.53
2018-12-21T19:20:11.176Z,4.53
2018-12-21T19:22:43.618Z,4.90
2018-12-21T19:25:13.272Z,5.47
2018-12-21T19:27:43.074Z,4.53
2018-12-21T19:30:12.570Z,4.97
2018-12-21T19:32:40.878Z,5.63
2018-12-21T19:35:11.789Z,4.87
2018-12-21T19:37:42.110Z,5.37
2018-12-21T19:40:23.783Z,5.73
2018-12-21T19:42:52.545Z,5.23
2018-12-21T19:45:21.570Z,4.80
2018-12-21T19:47:53.146Z,5.37
2018-12-21T19:50:22.427Z,4.87
2018-12-21T19:52:51.143Z,5.12
2018-12-21T20:01:14.003Z,5.70
2018-12-21T20:03:43.278Z,4.83
2018-12-21T20:06:11.368Z,5.03
2018-12-21T20:08:39.445Z,5.30
2018-12-21T20:11:08.006Z,5.70
2018-12-21T20:13:36.075Z,5.03
2018-12-21T20:16:04.227Z,5.27
2018-12-21T20:18:32.390Z,5.37
2018-12-21T20:21:00.488Z,5.70
2018-12-21T20:23:28.606Z,4.83
2018-12-21T20:25:56.939Z,5.67
2018-12-21T20:28:25.157Z,5.83
2018-12-21T20:30:53.344Z,5.43
2018-12-21T20:33:21.434Z,6.73
2018-12-21T20:35:49.543Z,4.87
2018-12-21T20:38:21.478Z,5.00
2018-12-21T20:40:47.713Z,5.27
2018-12-21T20:43:15.774Z,4.92
2018-12-21T20:45:43.850Z,5.10
2018-12-21T20:48:11.924Z,6.13
2018-12-21T20:50:41.129Z,4.90
2018-12-21T20:53:09.203Z,5.57
2018-12-21T20:55:37.281Z,5.47
2018-12-21T20:58:06.289Z,5.27
2018-12-21T21:00:34.356Z,5.45
2018-12-21T21:03:02.575Z,5.03
2018-12-21T21:05:30.638Z,5.93
2018-12-21T21:07:58.800Z,5.23
2018-12-21T21:10:27.022Z,5.03
2018-12-21T21:12:55.164Z,5.87
2018-12-21T21:15:23.232Z,5.23
2018-12-21T21:17:51.328Z,6.77
2018-12-21T21:20:19.423Z,4.47
2018-12-21T21:22:47.482Z,5.87
2018-12-21T21:25:15.600Z,6.53
2018-12-21T21:27:43.646Z,4.27
2018-12-21T21:30:15.841Z,6.20
2018-12-21T21:32:43.898Z,5.17
2018-12-21T21:35:12.043Z,4.50
2018-12-21T21:37:40.098Z,5.87
2018-12-21T21:40:15.033Z,5.17
2018-12-21T21:42:43.357Z,5.13
2018-12-21T21:45:11.543Z,5.40
2018-12-21T21:47:39.652Z,5.07
2018-12-21T21:50:11.402Z,6.47
2018-12-21T21:52:39.995Z,5.07
2018-12-21T21:55:08.281Z,4.37
2018-12-21T21:57:39.497Z,5.42
2018-12-21T22:02:48.320Z,5.20
2018-12-21T22:05:16.521Z,5.03
2018-12-21T22:07:44.579Z,5.90
2018-12-21T22:10:13.451Z,6.63
2018-12-21T22:12:41.739Z,4.73
2018-12-21T22:15:09.847Z,5.67
2018-12-21T22:17:37.992Z,5.53
2018-12-21T22:20:08.468Z,4.53
2018-12-21T22:22:36.536Z,4.50
2018-12-21T22:25:04.815Z,5.42
2018-12-21T22:27:32.874Z,4.87
2018-12-21T22:30:01.014Z,4.43
2018-12-21T22:32:29.084Z,5.87
2018-12-21T22:34:57.160Z,5.33
2018-12-21T22:37:25.231Z,5.00
2018-12-21T22:39:53.380Z,4.90
2018-12-21T22:42:21.493Z,5.17
2018-12-21T22:44:49.650Z,4.53
2018-12-21T22:47:17.806Z,5.03
2018-12-21T22:49:45.907Z,5.67
2018-12-21T22:52:14.016Z,4.93
2018-12-21T22:54:42.075Z,4.50
2018-12-21T22:57:10.150Z,5.23
2018-12-21T22:59:38.219Z,4.17
2018-12-21T23:02:06.310Z,6.03
2018-12-21T23:04:34.421Z,5.40
2018-12-21T23:07:02.490Z,5.47
2018-12-21T23:09:30.557Z,5.50
2018-12-21T23:11:58.628Z,5.87
2018-12-21T23:14:26.752Z,5.00
2018-12-21T23:16:54.856Z,4.73
2018-12-21T23:19:22.995Z,5.17
2018-12-21T23:21:51.062Z,5.87
2018-12-21T23:24:19.164Z,4.80
2018-12-21T23:26:47.231Z,5.13
2018-12-21T23:29:15.289Z,5.10
2018-12-21T23:31:43.742Z,5.87
2018-12-21T23:34:11.868Z,4.70
2018-12-21T23:36:39.934Z,4.47
2018-12-21T23:39:07.996Z,5.00
2018-12-21T23:41:36.064Z,4.45
2018-12-21T23:44:04.202Z,4.20
2018-12-21T23:46:32.295Z,4.93
2018-12-21T23:49:00.431Z,5.63
2018-12-21T23:51:28.506Z,5.27
2018-12-21T23:53:56.563Z,5.43
2018-12-21T23:56:24.634Z,5.50
2018-12-21T23:58:52.739Z,4.10
